KLAR/LAR METAR and TAF weather

Enter ICAO airport designator
Station Type Date Time Source
KLAR METAR 2019/10/18 11:00 UTC NOAA

KLAR 181100Z AUTO 36008KT 10SM CLR 06/M06 A2967 RMK AO2 WSHFT 1040 T00611061


Station Type Date Time Source
KLAR Decoded METAR 2019/10/18 11:00 UTC NOAA

LARAMIE REGIONAL AIRPORT, WY, United States (KLAR) 41-19N 105-40W 2216M
Oct 18, 2019 - 07:00 AM EDT / 2019.10.18 1100 UTC
Wind: from the N (360 degrees) at 9 MPH (8 KT):0
Visibility: 10 mile(s):0
Sky conditions: clear
Temperature: 43.0 F (6.1 C)
Dew Point: 21.0 F (-6.1 C)
Relative Humidity: 41%
Pressure (altimeter): 29.67 in. Hg (1004 hPa)
ob: KLAR 181100Z AUTO 36008KT 10SM CLR 06/M06 A2967 RMK AO2 WSHFT 1040 T00611061
cycle: 11

Station Type Date Time Source
KLAR TAF 2019/10/18 06:22 UTC NOAA

TAF KLAR 180520Z 1806/1906 21012KT P6SM SKC
FM181300 26013G23KT P6SM BKN100
FM181500 27016G26KT 5SM BR BKN040
FM181700 27025G35KT P6SM FEW250
FM190000 29018G28KT P6SM BKN250

Example: see airport list